createdAt,value
2019-04-10T00:00:35.731Z,98213.63
2019-04-10T00:02:10.587Z,98213.67
2019-04-10T00:03:44.825Z,98215.64
2019-04-10T00:05:19.864Z,98214.32
2019-04-10T00:07:07.806Z,98210.55
2019-04-10T00:08:30.534Z,98210.05
2019-04-10T00:10:06.164Z,98213.17
2019-04-10T00:11:40.986Z,98217.45
2019-04-10T00:13:15.341Z,98215.31
2019-04-10T00:14:50.530Z,98223.03
2019-04-10T00:16:24.810Z,98227.58
2019-04-10T00:17:59.854Z,98228.19
2019-04-10T00:19:35.735Z,98224.42
2019-04-10T00:21:11.270Z,98224.27
2019-04-10T00:22:46.545Z,98222.45
2019-04-10T00:24:21.958Z,98217.03
2019-04-10T00:25:57.269Z,98216.05
2019-04-10T00:27:31.738Z,98213.46
2019-04-10T00:29:05.969Z,98219.05
2019-04-10T00:30:40.979Z,98217.67
2019-04-10T00:32:16.114Z,98218.06
2019-04-10T00:33:51.378Z,98208.00
2019-04-10T00:35:25.792Z,98214.81
2019-04-10T00:37:01.668Z,98211.81
2019-04-10T00:38:37.958Z,98214.66
2019-04-10T00:40:12.387Z,98212.03
2019-04-10T00:41:46.223Z,98216.95
2019-04-10T00:43:20.687Z,98213.12
2019-04-10T00:44:54.949Z,98213.75
2019-04-10T00:46:30.388Z,98211.17
2019-04-10T00:48:05.779Z,98216.70
2019-04-10T00:49:40.355Z,98216.17
2019-04-10T00:51:15.206Z,98215.55
2019-04-10T00:52:49.708Z,98209.23
2019-04-10T00:54:24.260Z,98211.61
2019-04-10T00:55:58.556Z,98211.73
2019-04-10T00:57:33.752Z,98213.41
2019-04-10T00:59:08.934Z,98216.55
2019-04-10T01:00:43.744Z,98213.98
2019-04-10T01:02:18.557Z,98217.04
2019-04-10T01:03:53.907Z,98215.30
2019-04-10T01:05:28.432Z,98216.86
2019-04-10T01:07:04.123Z,98217.11
2019-04-10T01:08:38.683Z,98221.30
2019-04-10T01:10:14.287Z,98222.81
2019-04-10T01:11:49.679Z,98216.00
2019-04-10T01:13:25.025Z,98213.66
2019-04-10T01:15:00.189Z,98212.72
2019-04-10T01:16:35.582Z,98219.45
2019-04-10T01:18:10.951Z,98213.22
2019-04-10T01:19:45.357Z,98213.38
2019-04-10T01:21:19.989Z,98218.30
2019-04-10T01:22:55.246Z,98222.35
2019-04-10T01:24:30.098Z,98228.47
2019-04-10T01:26:05.191Z,98224.58
2019-04-10T01:27:41.035Z,98225.81
2019-04-10T01:29:15.714Z,98220.72
2019-04-10T01:30:50.742Z,98204.15
2019-04-10T01:32:25.820Z,98201.64
2019-04-10T01:34:01.037Z,98191.75
2019-04-10T01:35:35.479Z,98192.28
2019-04-10T01:37:10.415Z,98191.30
2019-04-10T01:38:44.744Z,98194.01
2019-04-10T01:40:19.186Z,98191.00
2019-04-10T01:41:54.747Z,98197.16
2019-04-10T01:43:29.286Z,98203.67
2019-04-10T01:45:04.963Z,98204.09
2019-04-10T01:46:40.229Z,98197.94
2019-04-10T01:48:15.405Z,98201.95
2019-04-10T01:49:50.348Z,98193.22
2019-04-10T01:51:25.553Z,98189.94
2019-04-10T01:53:00.126Z,98192.40
2019-04-10T01:54:35.367Z,98195.64
2019-04-10T01:56:21.238Z,98194.73
2019-04-10T01:57:46.683Z,98196.30
2019-04-10T01:59:23.625Z,98204.55
2019-04-10T02:01:08.358Z,98200.39
2019-04-10T02:02:47.778Z,98199.41
2019-04-10T02:04:22.774Z,98196.17
2019-04-10T02:05:57.243Z,98195.67
2019-04-10T02:07:31.920Z,98196.66
2019-04-10T02:09:09.393Z,98194.94
2019-04-10T02:10:44.622Z,98191.98
2019-04-10T02:12:19.147Z,98187.84
2019-04-10T02:13:54.024Z,98188.42
2019-04-10T02:15:28.775Z,98181.41
2019-04-10T02:17:04.182Z,98182.77
2019-04-10T02:18:38.858Z,98180.75
2019-04-10T02:20:14.620Z,98183.42
2019-04-10T02:21:49.754Z,98183.14
2019-04-10T02:23:24.221Z,98185.80
2019-04-10T02:24:59.528Z,98184.53
2019-04-10T02:26:33.954Z,98188.06
2019-04-10T02:28:09.002Z,98191.05
2019-04-10T02:29:43.961Z,98191.47
2019-04-10T02:31:22.010Z,98195.32
2019-04-10T02:32:57.931Z,98198.84
2019-04-10T02:34:32.788Z,98195.32
2019-04-10T02:36:08.449Z,98195.64
2019-04-10T02:37:43.434Z,98189.91
2019-04-10T02:39:27.626Z,98195.92
2019-04-10T02:40:55.601Z,98197.41
2019-04-10T02:42:30.279Z,98195.32
2019-04-10T02:44:05.143Z,98205.53
2019-04-10T02:45:40.381Z,98192.77
2019-04-10T02:47:16.753Z,98194.95
2019-04-10T02:48:51.975Z,98194.74
2019-04-10T02:50:27.291Z,98199.22
2019-04-10T02:52:01.782Z,98201.19
2019-04-10T02:53:37.389Z,98195.07
2019-04-10T02:55:12.025Z,98203.31
2019-04-10T02:56:47.786Z,98202.30
2019-04-10T02:58:22.439Z,98201.55
2019-04-10T02:59:57.683Z,98200.28
2019-04-10T03:01:33.397Z,98199.78
2019-04-10T03:03:07.846Z,98197.91
2019-04-10T03:04:42.516Z,98196.44
2019-04-10T03:06:18.892Z,98195.36
2019-04-10T03:07:53.246Z,98203.61
2019-04-10T03:09:41.801Z,98201.97
2019-04-10T03:11:06.607Z,98200.98
2019-04-10T03:12:41.014Z,98203.31
2019-04-10T03:14:16.831Z,98199.55
2019-04-10T03:15:51.836Z,98203.28
2019-04-10T03:17:26.410Z,98201.39
2019-04-10T03:19:01.245Z,98201.39
2019-04-10T03:20:35.681Z,98200.56
2019-04-10T03:22:10.485Z,98197.78
2019-04-10T03:23:45.454Z,98194.87
2019-04-10T03:25:21.146Z,98198.39
2019-04-10T03:26:56.194Z,98202.22
2019-04-10T03:28:31.974Z,98203.69
2019-04-10T03:30:08.296Z,98200.81
2019-04-10T03:31:45.072Z,98202.30
2019-04-10T03:33:24.584Z,98204.67
2019-04-10T03:34:58.562Z,98205.83
2019-04-10T03:36:37.880Z,98207.05
2019-04-10T03:38:12.557Z,98210.63
2019-04-10T03:39:46.913Z,98210.58
2019-04-10T03:41:21.212Z,98209.47
2019-04-10T03:42:55.482Z,98214.80
2019-04-10T03:44:30.451Z,98219.17
2019-04-10T03:46:05.429Z,98218.30
2019-04-10T03:47:39.828Z,98220.89
2019-04-10T03:49:14.133Z,98223.03
2019-04-10T03:50:48.805Z,98222.11
2019-04-10T03:52:25.261Z,98220.39
2019-04-10T03:54:00.571Z,98223.34
2019-04-10T03:55:35.279Z,98224.92
2019-04-10T03:57:10.114Z,98228.04
2019-04-10T03:58:44.643Z,98234.83
2019-04-10T04:00:20.891Z,98231.55
2019-04-10T04:01:55.517Z,98234.92
2019-04-10T04:03:30.794Z,98234.42
2019-04-10T04:05:06.639Z,98246.33
2019-04-10T04:06:42.048Z,98244.81
2019-04-10T04:08:16.345Z,98244.44
2019-04-10T04:09:51.573Z,98250.88
2019-04-10T04:11:26.087Z,98248.22
2019-04-10T04:13:01.494Z,98252.53
2019-04-10T04:14:36.686Z,98256.26
2019-04-10T04:16:11.371Z,98253.63
2019-04-10T04:17:46.492Z,98250.27
2019-04-10T04:19:21.795Z,98252.48
2019-04-10T04:20:56.337Z,98249.38
2019-04-10T04:22:30.767Z,98250.69
2019-04-10T04:24:05.096Z,98252.57
2019-04-10T04:25:39.388Z,98248.59
2019-04-10T04:27:15.236Z,98254.29
2019-04-10T04:28:50.191Z,98255.52
2019-04-10T04:30:24.717Z,98255.93
2019-04-10T04:31:59.160Z,98256.70
2019-04-10T04:33:34.072Z,98262.01
2019-04-10T04:35:09.188Z,98257.87
2019-04-10T04:36:43.424Z,98256.50
2019-04-10T04:38:17.878Z,98264.27
2019-04-10T04:39:52.234Z,98265.74
2019-04-10T04:41:27.391Z,98257.66
2019-04-10T04:43:01.693Z,98257.38
2019-04-10T04:44:35.922Z,98255.02
2019-04-10T04:46:10.226Z,98260.38
2019-04-10T04:47:44.984Z,98261.03
2019-04-10T04:49:19.312Z,98255.86
2019-04-10T04:50:54.421Z,98256.67
2019-04-10T04:52:29.215Z,98256.02
2019-04-10T04:54:04.551Z,98262.78
2019-04-10T04:55:39.451Z,98257.73
2019-04-10T04:57:14.915Z,98259.17
2019-04-10T04:58:49.683Z,98258.23
2019-04-10T05:00:25.689Z,98263.08
2019-04-10T05:02:01.244Z,98267.39
2019-04-10T05:03:37.555Z,98264.84
2019-04-10T05:05:11.923Z,98265.38
2019-04-10T05:06:47.713Z,98269.97
2019-04-10T05:08:23.687Z,98272.27
2019-04-10T05:10:00.220Z,98279.42
2019-04-10T05:11:34.384Z,98280.35
2019-04-10T05:13:08.789Z,98284.08
2019-04-10T05:14:44.030Z,98287.63
2019-04-10T05:16:18.658Z,98287.61
2019-04-10T05:17:53.543Z,98292.83
2019-04-10T05:19:28.198Z,98289.34
2019-04-10T05:21:03.057Z,98292.67
2019-04-10T05:22:37.425Z,98294.80
2019-04-10T05:24:11.753Z,98297.55
2019-04-10T05:25:46.247Z,98289.94
2019-04-10T05:27:20.555Z,98294.03
2019-04-10T05:28:54.991Z,98286.73
2019-04-10T05:30:29.247Z,98295.95
2019-04-10T05:32:03.709Z,98283.92
2019-04-10T05:33:38.708Z,98288.36
2019-04-10T05:35:12.993Z,98291.52
2019-04-10T05:36:47.276Z,98296.81
2019-04-10T05:38:22.807Z,98295.41
2019-04-10T05:39:57.174Z,98293.06
2019-04-10T05:41:31.513Z,98289.89
2019-04-10T05:43:05.917Z,98294.66
2019-04-10T05:44:40.426Z,98294.70
2019-04-10T05:46:16.536Z,98303.53
2019-04-10T05:47:51.167Z,98300.73
2019-04-10T05:49:25.448Z,98304.42
2019-04-10T05:51:04.345Z,98299.86
2019-04-10T05:52:35.996Z,98297.45
2019-04-10T05:54:10.581Z,98289.64
2019-04-10T05:55:47.239Z,98294.91
2019-04-10T05:57:24.513Z,98292.12
2019-04-10T05:58:58.849Z,98295.40
2019-04-10T06:00:34.847Z,98301.89
2019-04-10T06:02:09.394Z,98291.42
2019-04-10T06:03:45.590Z,98294.09
2019-04-10T06:05:20.595Z,98297.47
2019-04-10T06:06:56.865Z,98304.53
2019-04-10T06:08:31.240Z,98304.67
2019-04-10T06:10:10.227Z,98302.79
2019-04-10T06:11:45.611Z,98310.55
2019-04-10T06:13:19.985Z,98312.92
2019-04-10T06:14:54.655Z,98313.80
2019-04-10T06:16:30.325Z,98312.41
2019-04-10T06:18:04.991Z,98306.91
2019-04-10T06:19:40.469Z,98306.21
2019-04-10T06:21:15.018Z,98303.67
2019-04-10T06:22:50.617Z,98305.44
2019-04-10T06:24:25.310Z,98311.05
2019-04-10T06:26:00.519Z,98308.71
2019-04-10T06:27:34.955Z,98314.38
2019-04-10T06:29:10.546Z,98313.31
2019-04-10T06:30:45.171Z,98313.36
2019-04-10T06:32:19.464Z,98317.75
2019-04-10T06:33:53.754Z,98315.70
2019-04-10T06:35:28.316Z,98315.08
2019-04-10T06:37:03.939Z,98314.34
2019-04-10T06:38:39.151Z,98324.49
2019-04-10T06:40:19.219Z,98327.13
2019-04-10T06:41:50.624Z,98323.26
2019-04-10T06:43:25.283Z,98325.27
2019-04-10T06:45:01.012Z,98325.81
2019-04-10T06:46:37.608Z,98321.61
2019-04-10T06:48:11.472Z,98317.14
2019-04-10T06:49:46.092Z,98325.44
2019-04-10T06:51:21.594Z,98324.30
2019-04-10T06:52:56.889Z,98328.73
2019-04-10T06:54:31.699Z,98328.06
2019-04-10T06:56:06.892Z,98328.06
2019-04-10T06:57:49.193Z,98326.83
2019-04-10T06:59:17.376Z,98325.84
2019-04-10T07:00:54.573Z,98334.44
2019-04-10T07:02:30.836Z,98333.37
2019-04-10T07:04:07.625Z,98337.34
2019-04-10T07:05:49.385Z,98335.54
2019-04-10T07:07:20.275Z,98333.49
2019-04-10T07:08:53.390Z,98339.48
2019-04-10T07:10:37.201Z,98345.61
2019-04-10T07:12:04.742Z,98343.03
2019-04-10T07:13:40.451Z,98346.34
2019-04-10T07:15:22.103Z,98354.73
2019-04-10T07:16:52.894Z,98354.04
2019-04-10T07:18:28.292Z,98356.63
2019-04-10T07:20:03.758Z,98361.95
2019-04-10T07:21:38.648Z,98352.92
2019-04-10T07:23:14.532Z,98361.87
2019-04-10T07:24:51.397Z,98370.87
2019-04-10T07:26:35.392Z,98367.33
2019-04-10T07:28:02.871Z,98368.16
2019-04-10T07:29:38.323Z,98365.70
2019-04-10T07:31:15.481Z,98368.62
2019-04-10T07:32:50.814Z,98368.95
2019-04-10T07:34:27.899Z,98367.12
2019-04-10T07:36:04.281Z,98368.80
2019-04-10T07:37:37.334Z,98372.95
2019-04-10T07:39:13.043Z,98368.68
2019-04-10T07:40:47.419Z,98372.18
2019-04-10T07:42:29.388Z,98376.08
2019-04-10T07:43:58.301Z,98372.51
2019-04-10T07:45:35.409Z,98370.70
2019-04-10T07:47:09.083Z,98372.63
2019-04-10T07:48:43.556Z,98375.13
2019-04-10T07:50:20.510Z,98377.27
2019-04-10T07:51:54.735Z,98378.14
2019-04-10T07:53:28.964Z,98379.45
2019-04-10T07:55:04.393Z,98378.34
2019-04-10T07:56:39.593Z,98374.77
2019-04-10T07:58:15.219Z,98376.95
2019-04-10T07:59:49.758Z,98376.12
2019-04-10T08:01:24.267Z,98377.41
2019-04-10T08:02:59.487Z,98377.41
2019-04-10T08:04:35.321Z,98371.78
2019-04-10T08:06:09.770Z,98373.53
2019-04-10T08:07:45.211Z,98376.05
2019-04-10T08:09:20.743Z,98381.06
2019-04-10T08:10:55.561Z,98383.83
2019-04-10T08:12:39.455Z,98383.12
2019-04-10T08:14:08.207Z,98374.70
2019-04-10T08:15:41.698Z,98372.89
2019-04-10T08:17:21.787Z,98371.41
2019-04-10T08:18:57.826Z,98370.91
2019-04-10T08:20:32.696Z,98372.03
2019-04-10T08:22:08.569Z,98369.14
2019-04-10T08:23:43.174Z,98364.89
2019-04-10T08:25:18.462Z,98375.59
2019-04-10T08:26:52.899Z,98370.48
2019-04-10T08:28:30.467Z,98368.86
2019-04-10T08:30:03.483Z,98361.48
2019-04-10T08:31:37.702Z,98366.06
2019-04-10T08:33:14.058Z,98367.25
2019-04-10T08:34:49.800Z,98365.56
2019-04-10T08:36:25.585Z,98363.41
2019-04-10T08:38:01.205Z,98365.25
2019-04-10T08:39:41.668Z,98367.67
2019-04-10T08:41:13.162Z,98368.27
2019-04-10T08:42:47.649Z,98369.48
2019-04-10T08:44:22.239Z,98371.16
2019-04-10T08:45:56.904Z,98371.50
2019-04-10T08:47:31.411Z,98367.22
2019-04-10T08:49:05.898Z,98370.44
2019-04-10T08:50:40.194Z,98369.16
2019-04-10T08:52:16.550Z,98372.75
2019-04-10T08:53:53.642Z,98368.26
2019-04-10T08:55:28.148Z,98370.13
2019-04-10T08:57:03.273Z,98375.06
2019-04-10T08:58:37.797Z,98375.60
2019-04-10T09:00:12.416Z,98378.44
2019-04-10T09:01:47.248Z,98373.48
2019-04-10T09:03:22.478Z,98381.59
2019-04-10T09:04:57.352Z,98380.51
2019-04-10T09:06:31.738Z,98387.07
2019-04-10T09:08:06.248Z,98384.34
2019-04-10T09:09:42.233Z,98389.00
2019-04-10T09:11:25.571Z,98388.42
2019-04-10T09:12:54.537Z,98394.86
2019-04-10T09:14:29.514Z,98387.23
2019-04-10T09:16:04.554Z,98389.69
2019-04-10T09:17:39.675Z,98389.85
2019-04-10T09:19:14.287Z,98390.33
2019-04-10T09:20:49.098Z,98393.65
2019-04-10T09:22:24.636Z,98391.52
2019-04-10T09:24:00.310Z,98391.61
2019-04-10T09:25:35.879Z,98400.25
2019-04-10T09:27:10.969Z,98406.16
2019-04-10T09:28:46.549Z,98404.31
2019-04-10T09:30:21.298Z,98403.91
2019-04-10T09:31:55.807Z,98402.38
2019-04-10T09:33:32.209Z,98405.61
2019-04-10T09:35:08.778Z,98406.08
2019-04-10T09:36:43.717Z,98411.05
2019-04-10T09:38:18.839Z,98406.98
2019-04-10T09:39:54.872Z,98404.64
2019-04-10T09:41:30.022Z,98405.52
2019-04-10T09:43:05.095Z,98409.09
2019-04-10T09:44:40.089Z,98409.84
2019-04-10T09:46:14.445Z,98412.72
2019-04-10T09:47:48.799Z,98412.90
2019-04-10T09:49:33.778Z,98407.63
2019-04-10T09:51:00.199Z,98406.02
2019-04-10T09:52:35.660Z,98406.86
2019-04-10T09:54:10.439Z,98411.14
2019-04-10T09:55:46.857Z,98404.72
2019-04-10T09:57:22.470Z,98400.36
2019-04-10T09:58:57.049Z,98402.17
2019-04-10T10:00:33.956Z,98398.37
2019-04-10T10:02:09.244Z,98399.66
2019-04-10T10:03:44.434Z,98398.19
2019-04-10T10:05:20.289Z,98399.06
2019-04-10T10:06:55.725Z,98397.05
2019-04-10T10:08:31.610Z,98395.02
2019-04-10T10:10:08.728Z,98401.03
2019-04-10T10:11:43.514Z,98399.00
2019-04-10T10:13:17.765Z,98394.72
2019-04-10T10:14:52.122Z,98399.58
2019-04-10T10:16:27.482Z,98401.33
2019-04-10T10:18:03.386Z,98399.58
2019-04-10T10:19:39.157Z,98402.83
2019-04-10T10:21:14.425Z,98401.16
2019-04-10T10:22:49.508Z,98400.27
2019-04-10T10:24:24.648Z,98406.77
2019-04-10T10:26:01.652Z,98409.18
2019-04-10T10:27:36.159Z,98409.59
2019-04-10T10:29:11.303Z,98402.30
2019-04-10T10:30:47.297Z,98408.70
2019-04-10T10:32:21.799Z,98406.55
2019-04-10T10:33:56.532Z,98411.20
2019-04-10T10:35:31.376Z,98412.77
2019-04-10T10:37:08.304Z,98411.23
2019-04-10T10:38:43.357Z,98413.93
2019-04-10T10:40:19.296Z,98418.38
2019-04-10T10:41:54.447Z,98418.70
2019-04-10T10:43:29.250Z,98413.44
2019-04-10T10:45:05.168Z,98418.83
2019-04-10T10:46:39.775Z,98423.71
2019-04-10T10:48:15.452Z,98421.63
2019-04-10T10:49:50.792Z,98418.81
2019-04-10T10:51:25.067Z,98421.30
2019-04-10T10:52:59.774Z,98420.09
2019-04-10T10:54:34.933Z,98421.00
2019-04-10T10:56:09.867Z,98420.50
2019-04-10T10:57:44.451Z,98424.78
2019-04-10T10:59:19.609Z,98423.44
2019-04-10T11:00:54.018Z,98430.29
2019-04-10T11:02:29.570Z,98431.87
2019-04-10T11:04:04.749Z,98432.63
2019-04-10T11:05:39.189Z,98432.91
2019-04-10T11:07:14.437Z,98435.17
2019-04-10T11:08:49.412Z,98429.33
2019-04-10T11:10:27.069Z,98430.58
2019-04-10T11:12:00.124Z,98433.83
2019-04-10T11:13:34.787Z,98429.50
2019-04-10T11:15:10.082Z,98429.63
2019-04-10T11:16:46.974Z,98432.34
2019-04-10T11:18:22.240Z,98432.92
2019-04-10T11:19:56.511Z,98427.42
2019-04-10T11:21:32.397Z,98428.27
2019-04-10T11:23:06.913Z,98421.78
2019-04-10T11:24:42.763Z,98427.88
2019-04-10T11:26:20.534Z,98422.31
2019-04-10T11:27:54.007Z,98422.22
2019-04-10T11:29:28.743Z,98417.27
2019-04-10T11:31:03.260Z,98424.17
2019-04-10T11:32:38.233Z,98414.17
2019-04-10T11:34:14.042Z,98420.64
2019-04-10T11:35:48.588Z,98413.36
2019-04-10T11:37:34.294Z,98411.42
2019-04-10T11:39:10.616Z,98408.91
2019-04-10T11:40:35.084Z,98404.59
2019-04-10T11:42:10.077Z,98397.97
2019-04-10T11:43:46.304Z,98395.05
2019-04-10T11:45:20.765Z,98398.17
2019-04-10T11:46:56.865Z,98395.23
2019-04-10T11:48:32.310Z,98394.84
2019-04-10T11:51:46.569Z,98387.63
2019-04-10T11:53:21.498Z,98380.33
2019-04-10T11:55:05.118Z,98381.33
2019-04-10T11:56:33.775Z,98377.44
2019-04-10T11:58:08.579Z,98376.16
2019-04-10T11:59:48.459Z,98366.36
2019-04-10T12:01:22.834Z,98366.69
2019-04-10T12:02:58.745Z,98364.27
2019-04-10T12:04:44.495Z,98367.86
2019-04-10T12:06:08.136Z,98362.72
2019-04-10T12:09:58.703Z,98361.56
2019-04-10T12:12:30.507Z,98368.78
2019-04-10T12:14:05.044Z,98369.51
2019-04-10T12:15:40.692Z,98371.92
2019-04-10T12:17:16.036Z,98368.69
2019-04-10T12:18:50.964Z,98372.82
2019-04-10T12:20:25.378Z,98363.70
2019-04-10T12:21:59.667Z,98365.20
2019-04-10T12:23:34.733Z,98362.80
2019-04-10T12:25:12.388Z,98363.22
2019-04-10T12:26:46.158Z,98363.13
2019-04-10T12:28:20.413Z,98358.91
2019-04-10T12:29:55.106Z,98355.28
2019-04-10T12:31:30.503Z,98355.50
2019-04-10T12:33:05.399Z,98355.37
2019-04-10T12:34:40.301Z,98356.21
2019-04-10T12:36:14.798Z,98356.09
2019-04-10T12:37:58.626Z,98351.55
2019-04-10T12:39:25.523Z,98355.59
2019-04-10T12:40:59.866Z,98356.06
2019-04-10T12:42:34.548Z,98357.21
2019-04-10T12:44:09.590Z,98352.42
2019-04-10T12:45:44.387Z,98357.84
2019-04-10T12:47:19.001Z,98352.27
2019-04-10T12:48:53.284Z,98359.01
2019-04-10T12:50:28.693Z,98361.56
2019-04-10T12:52:03.165Z,98359.45
2019-04-10T12:53:38.063Z,98361.45
2019-04-10T12:55:12.782Z,98363.27
2019-04-10T12:56:48.470Z,98365.22
2019-04-10T12:58:23.069Z,98364.80
2019-04-10T13:00:01.216Z,98371.05
2019-04-10T13:01:33.381Z,98374.66
2019-04-10T13:03:08.327Z,98370.50
2019-04-10T13:04:44.843Z,98371.52
2019-04-10T13:06:20.001Z,98370.87
2019-04-10T13:07:54.557Z,98374.65
2019-04-10T13:09:29.611Z,98370.56
2019-04-10T13:11:04.498Z,98372.48
2019-04-10T13:12:39.747Z,98375.02
2019-04-10T13:14:14.752Z,98368.54
2019-04-10T13:15:49.761Z,98373.87
2019-04-10T13:17:24.832Z,98371.66
2019-04-10T13:19:00.577Z,98371.31
2019-04-10T13:20:35.194Z,98370.45
2019-04-10T13:22:09.628Z,98372.37
2019-04-10T13:23:44.753Z,98375.70
2019-04-10T13:25:19.370Z,98372.98
2019-04-10T13:26:55.043Z,98368.59
2019-04-10T13:28:29.709Z,98364.05
2019-04-10T13:30:12.570Z,98368.31
2019-04-10T13:31:46.715Z,98372.36
2019-04-10T13:33:21.290Z,98366.25
2019-04-10T13:34:56.225Z,98360.97
2019-04-10T13:36:31.374Z,98364.46
2019-04-10T13:38:06.793Z,98366.59
2019-04-10T13:39:41.397Z,98366.42
2019-04-10T13:41:16.468Z,98368.53
2019-04-10T13:42:51.576Z,98369.13
2019-04-10T13:44:26.645Z,98366.38
2019-04-10T13:46:01.005Z,98368.36
2019-04-10T13:47:35.575Z,98373.47
2019-04-10T13:49:09.838Z,98371.37
2019-04-10T13:50:44.542Z,98371.33
2019-04-10T13:52:18.759Z,98368.00
2019-04-10T13:53:55.111Z,98371.73
2019-04-10T13:55:30.440Z,98366.25
2019-04-10T13:57:05.709Z,98368.58
2019-04-10T13:58:40.369Z,98366.55
2019-04-10T14:00:23.817Z,98365.75
2019-04-10T14:01:58.492Z,98356.22
2019-04-10T14:03:32.823Z,98362.13
2019-04-10T14:05:11.761Z,98366.05
2019-04-10T14:06:49.136Z,98370.06
2019-04-10T14:08:33.772Z,98366.81
2019-04-10T14:09:58.682Z,98365.84
2019-04-10T14:11:33.344Z,98357.75
2019-04-10T14:13:07.944Z,98363.69
2019-04-10T14:14:42.503Z,98359.88
2019-04-10T14:16:17.022Z,98352.23
2019-04-10T14:17:52.125Z,98348.02
2019-04-10T14:19:28.258Z,98348.30
2019-04-10T14:21:07.509Z,98346.98
2019-04-10T14:22:40.098Z,98344.66
2019-04-10T14:24:14.386Z,98349.78
2019-04-10T14:26:06.504Z,98350.04
2019-04-10T14:27:42.587Z,98353.41
2019-04-10T14:29:18.949Z,98349.80
2019-04-10T14:30:55.712Z,98344.55
2019-04-10T14:32:31.958Z,98349.89
2019-04-10T14:34:07.335Z,98342.50
2019-04-10T14:35:43.121Z,98343.16
2019-04-10T14:37:17.607Z,98343.31
2019-04-10T14:38:55.002Z,98344.25
2019-04-10T14:40:30.498Z,98348.08
2019-04-10T14:42:04.864Z,98351.12
2019-04-10T14:43:39.737Z,98343.91
2019-04-10T14:45:14.502Z,98343.81
2019-04-10T14:46:49.709Z,98344.56
2019-04-10T14:48:24.450Z,98342.13
2019-04-10T14:49:59.631Z,98340.84
2019-04-10T14:51:34.752Z,98336.67
2019-04-10T14:53:09.651Z,98342.53
2019-04-10T14:54:44.014Z,98339.79
2019-04-10T14:56:18.254Z,98336.81
2019-04-10T14:57:53.161Z,98338.77
2019-04-10T14:59:28.220Z,98339.93
2019-04-10T15:01:03.319Z,98339.00
2019-04-10T15:02:39.665Z,98335.86
2019-04-10T15:04:15.057Z,98332.32
2019-04-10T15:05:51.439Z,98338.44
2019-04-10T15:07:26.877Z,98333.55
2019-04-10T15:09:01.401Z,98333.66
2019-04-10T15:10:36.084Z,98332.86
2019-04-10T15:12:10.444Z,98337.28
2019-04-10T15:13:45.679Z,98336.29
2019-04-10T15:15:20.556Z,98331.89
2019-04-10T15:17:01.795Z,98326.07
2019-04-10T15:18:33.089Z,98326.01
2019-04-10T15:20:07.367Z,98326.12
2019-04-10T15:21:41.598Z,98325.77
2019-04-10T15:23:16.312Z,98322.93
2019-04-10T15:24:51.633Z,98330.40
2019-04-10T15:26:26.746Z,98330.08
2019-04-10T15:28:02.145Z,98331.92
2019-04-10T15:29:37.033Z,98332.24
2019-04-10T15:31:11.381Z,98328.10
2019-04-10T15:32:45.625Z,98331.85
2019-04-10T15:34:20.482Z,98327.14
2019-04-10T15:35:55.475Z,98331.78
2019-04-10T15:37:31.180Z,98333.73
2019-04-10T15:39:08.697Z,98340.88
2019-04-10T15:40:44.068Z,98341.78
2019-04-10T15:42:19.735Z,98340.09
2019-04-10T15:43:55.561Z,98344.59
2019-04-10T15:45:30.213Z,98345.52
2019-04-10T15:47:13.644Z,98345.86
2019-04-10T15:48:41.890Z,98345.03
2019-04-10T15:50:16.549Z,98345.84
2019-04-10T15:51:50.832Z,98348.25
2019-04-10T15:53:26.391Z,98348.17
2019-04-10T15:55:01.589Z,98349.13
2019-04-10T15:56:36.171Z,98352.05
2019-04-10T15:58:10.830Z,98350.93
2019-04-10T15:59:46.307Z,98352.53
2019-04-10T16:01:21.687Z,98348.23
2019-04-10T16:02:57.246Z,98352.51
2019-04-10T16:04:31.787Z,98357.33
2019-04-10T16:06:06.236Z,98350.89
2019-04-10T16:07:40.776Z,98357.91
2019-04-10T16:09:15.078Z,98356.19
2019-04-10T16:10:55.041Z,98359.52
2019-04-10T16:12:30.370Z,98356.48
2019-04-10T16:14:17.071Z,98351.31
2019-04-10T16:15:43.577Z,98356.15
2019-04-10T16:17:22.879Z,98355.50
2019-04-10T16:19:11.964Z,98350.31
2019-04-10T16:20:47.792Z,98355.25
2019-04-10T16:22:27.626Z,98349.63
2019-04-10T16:24:07.141Z,98352.21
2019-04-10T16:25:44.765Z,98352.00
2019-04-10T16:27:20.170Z,98350.22
2019-04-10T16:28:55.672Z,98355.23
2019-04-10T16:30:30.683Z,98356.19
2019-04-10T16:32:06.829Z,98357.28
2019-04-10T16:33:41.363Z,98361.48
2019-04-10T16:35:15.815Z,98361.55
2019-04-10T16:36:52.133Z,98359.44
2019-04-10T16:38:26.810Z,98360.48
2019-04-10T16:40:04.447Z,98360.46
2019-04-10T16:41:38.583Z,98357.05
2019-04-10T16:43:13.924Z,98359.71
2019-04-10T16:44:49.182Z,98358.38
2019-04-10T16:46:23.800Z,98359.02
2019-04-10T16:47:58.808Z,98360.00
2019-04-10T16:49:33.239Z,98362.37
2019-04-10T16:51:08.015Z,98363.09
2019-04-10T16:52:42.425Z,98362.76
2019-04-10T16:54:18.641Z,98364.21
2019-04-10T16:55:53.382Z,98366.91
2019-04-10T16:57:29.029Z,98363.67
2019-04-10T16:59:04.525Z,98374.34
2019-04-10T17:00:39.699Z,98370.59
2019-04-10T17:02:15.651Z,98367.30
2019-04-10T17:03:50.099Z,98374.92
2019-04-10T17:05:25.966Z,98372.17
2019-04-10T17:07:00.833Z,98376.28
2019-04-10T17:08:37.378Z,98376.56
2019-04-10T17:10:18.385Z,98380.99
2019-04-10T17:11:49.286Z,98381.89
2019-04-10T17:13:24.564Z,98383.30
2019-04-10T17:14:59.607Z,98380.80
2019-04-10T17:16:34.262Z,98384.27
2019-04-10T17:18:08.737Z,98387.39
2019-04-10T17:19:46.363Z,98384.09
2019-04-10T17:21:19.912Z,98385.66
2019-04-10T17:22:56.217Z,98384.67
2019-04-10T17:24:31.421Z,98384.00
2019-04-10T17:26:08.678Z,98388.27
2019-04-10T17:27:43.793Z,98391.00
2019-04-10T17:29:18.876Z,98389.27
2019-04-10T17:30:53.942Z,98390.56
2019-04-10T17:32:29.159Z,98390.97
2019-04-10T17:34:03.610Z,98393.45
2019-04-10T17:35:38.396Z,98398.07
2019-04-10T17:37:13.655Z,98397.06
2019-04-10T17:38:48.964Z,98397.05
2019-04-10T17:40:31.977Z,98401.02
2019-04-10T17:42:00.029Z,98398.97
2019-04-10T17:43:35.100Z,98398.38
2019-04-10T17:45:12.173Z,98406.88
2019-04-10T17:46:47.038Z,98408.77
2019-04-10T17:48:21.995Z,98405.22
2019-04-10T17:50:01.031Z,98413.92
2019-04-10T17:51:36.327Z,98412.70
2019-04-10T17:53:11.480Z,98414.02
2019-04-10T17:54:47.106Z,98418.38
2019-04-10T17:56:22.267Z,98419.55
2019-04-10T17:57:58.144Z,98423.21
2019-04-10T17:59:32.767Z,98428.36
2019-04-10T18:01:08.985Z,98430.13
2019-04-10T18:02:43.293Z,98425.47
2019-04-10T18:04:17.935Z,98434.19
2019-04-10T18:05:55.039Z,98435.48
2019-04-10T18:07:30.186Z,98441.94
2019-04-10T18:09:07.869Z,98438.61
2019-04-10T18:10:48.752Z,98444.81
2019-04-10T18:12:19.401Z,98442.17
2019-04-10T18:13:55.254Z,98436.67
2019-04-10T18:15:30.289Z,98443.50
2019-04-10T18:17:06.581Z,98450.37
2019-04-10T18:18:44.246Z,98451.97
2019-04-10T18:20:19.994Z,98456.16
2019-04-10T18:21:56.357Z,98460.92
2019-04-10T18:23:31.491Z,98457.21
2019-04-10T18:25:07.623Z,98467.19
2019-04-10T18:26:42.234Z,98461.30
2019-04-10T18:28:17.194Z,98468.41
2019-04-10T18:29:51.807Z,98462.28
2019-04-10T18:31:28.112Z,98465.23
2019-04-10T18:33:05.085Z,98468.39
2019-04-10T18:34:40.359Z,98468.98
2019-04-10T18:36:15.373Z,98461.78
2019-04-10T18:37:49.971Z,98464.98
2019-04-10T18:39:24.638Z,98461.02
2019-04-10T18:41:03.415Z,98458.72
2019-04-10T18:42:35.822Z,98458.12
2019-04-10T18:44:10.981Z,98455.70